sensor_id;sensor_type;location;lat;lon;timestamp;temperature;humidity
13426;DHT22;6785;57.918;12.530;2022-12-07T00:01:22;-1.40;99.90
13426;DHT22;6785;57.918;12.530;2022-12-07T00:03:51;-1.40;99.90
13426;DHT22;6785;57.918;12.530;2022-12-07T00:06:19;-1.50;99.90
13426;DHT22;6785;57.918;12.530;2022-12-07T00:08:46;-1.50;99.90
13426;DHT22;6785;57.918;12.530;2022-12-07T00:11:17;-1.50;99.90
13426;DHT22;6785;57.918;12.530;2022-12-07T00:13:44;-1.40;99.90
13426;DHT22;6785;57.918;12.530;2022-12-07T00:16:12;-1.40;99.90
13426;DHT22;6785;57.918;12.530;2022-12-07T00:18:40;-1.40;99.90
13426;DHT22;6785;57.918;12.530;2022-12-07T00:21:10;-1.30;99.90
13426;DHT22;6785;57.918;12.530;2022-12-07T00:23:38;-1.40;99.90
13426;DHT22;6785;57.918;12.530;2022-12-07T00:26:05;-1.40;99.90
13426;DHT22;6785;57.918;12.530;2022-12-07T00:28:34;-1.50;99.90
13426;DHT22;6785;57.918;12.530;2022-12-07T00:31:03;-1.50;99.90
13426;DHT22;6785;57.918;12.530;2022-12-07T00:33:30;-1.50;99.90
13426;DHT22;6785;57.918;12.530;2022-12-07T00:35:58;-1.50;99.90
13426;DHT22;6785;57.918;12.530;2022-12-07T00:38:27;-1.50;99.90
13426;DHT22;6785;57.918;12.530;2022-12-07T00:40:56;-1.50;99.90
13426;DHT22;6785;57.918;12.530;2022-12-07T00:43:23;-1.50;99.90
13426;DHT22;6785;57.918;12.530;2022-12-07T00:45:51;-1.50;99.90
13426;DHT22;6785;57.918;12.530;2022-12-07T00:48:18;-1.40;99.90
13426;DHT22;6785;57.918;12.530;2022-12-07T00:50:45;-1.40;99.90
13426;DHT22;6785;57.918;12.530;2022-12-07T00:53:11;-1.30;99.90
13426;DHT22;6785;57.918;12.530;2022-12-07T00:55:38;-1.30;99.90
13426;DHT22;6785;57.918;12.530;2022-12-07T00:58:05;-1.30;99.90
13426;DHT22;6785;57.918;12.530;2022-12-07T01:00:32;-1.30;99.90
13426;DHT22;6785;57.918;12.530;2022-12-07T01:03:01;-1.30;99.90
13426;DHT22;6785;57.918;12.530;2022-12-07T01:05:28;-1.30;99.90
13426;DHT22;6785;57.918;12.530;2022-12-07T01:07:54;-1.30;99.90
13426;DHT22;6785;57.918;12.530;2022-12-07T01:10:21;-1.30;99.90
13426;DHT22;6785;57.918;12.530;2022-12-07T01:12:48;-1.30;99.90
13426;DHT22;6785;57.918;12.530;2022-12-07T01:15:15;-1.30;99.90
13426;DHT22;6785;57.918;12.530;2022-12-07T01:17:41;-1.30;99.90
13426;DHT22;6785;57.918;12.530;2022-12-07T01:20:11;-1.30;99.90
13426;DHT22;6785;57.918;12.530;2022-12-07T01:22:38;-1.30;99.90
13426;DHT22;6785;57.918;12.530;2022-12-07T01:25:06;-1.30;99.90
13426;DHT22;6785;57.918;12.530;2022-12-07T01:27:34;-1.30;99.90
13426;DHT22;6785;57.918;12.530;2022-12-07T01:30:01;-1.30;99.90
13426;DHT22;6785;57.918;12.530;2022-12-07T01:32:29;-1.30;99.90
13426;DHT22;6785;57.918;12.530;2022-12-07T01:34:55;-1.30;99.90
13426;DHT22;6785;57.918;12.530;2022-12-07T01:37:23;-1.30;99.90
13426;DHT22;6785;57.918;12.530;2022-12-07T01:39:50;-1.30;99.90
13426;DHT22;6785;57.918;12.530;2022-12-07T01:42:18;-1.40;99.90
13426;DHT22;6785;57.918;12.530;2022-12-07T01:45:25;-1.40;99.90
13426;DHT22;6785;57.918;12.530;2022-12-07T01:48:00;-1.40;99.90
13426;DHT22;6785;57.918;12.530;2022-12-07T01:50:29;-1.40;99.90
13426;DHT22;6785;57.918;12.530;2022-12-07T01:53:00;-1.30;99.90
13426;DHT22;6785;57.918;12.530;2022-12-07T01:55:28;-1.40;99.90
13426;DHT22;6785;57.918;12.530;2022-12-07T01:57:55;-1.40;99.90
13426;DHT22;6785;57.918;12.530;2022-12-07T02:00:23;-1.50;99.90
13426;DHT22;6785;57.918;12.530;2022-12-07T02:02:54;-1.50;99.90
13426;DHT22;6785;57.918;12.530;2022-12-07T02:05:23;-1.50;99.90
13426;DHT22;6785;57.918;12.530;2022-12-07T02:07:52;-1.50;99.90
13426;DHT22;6785;57.918;12.530;2022-12-07T02:10:23;-1.60;99.90
13426;DHT22;6785;57.918;12.530;2022-12-07T02:12:52;-1.60;99.90
13426;DHT22;6785;57.918;12.530;2022-12-07T02:15:22;-1.60;99.90
13426;DHT22;6785;57.918;12.530;2022-12-07T02:17:57;-1.70;99.90
13426;DHT22;6785;57.918;12.530;2022-12-07T02:20:28;-1.70;99.90
13426;DHT22;6785;57.918;12.530;2022-12-07T02:23:39;-1.70;99.90
13426;DHT22;6785;57.918;12.530;2022-12-07T02:26:27;-1.60;99.90
13426;DHT22;6785;57.918;12.530;2022-12-07T02:29:11;-1.60;99.90
13426;DHT22;6785;57.918;12.530;2022-12-07T02:31:44;-1.60;99.90
13426;DHT22;6785;57.918;12.530;2022-12-07T02:34:19;-1.60;99.90
13426;DHT22;6785;57.918;12.530;2022-12-07T02:36:52;-1.60;99.90
13426;DHT22;6785;57.918;12.530;2022-12-07T02:39:25;-1.60;99.90
13426;DHT22;6785;57.918;12.530;2022-12-07T02:41:56;-1.60;99.90
13426;DHT22;6785;57.918;12.530;2022-12-07T02:44:27;-1.70;99.90
13426;DHT22;6785;57.918;12.530;2022-12-07T02:46:57;-1.80;99.90
13426;DHT22;6785;57.918;12.530;2022-12-07T02:49:27;-1.80;99.90
13426;DHT22;6785;57.918;12.530;2022-12-07T02:51:54;-1.80;99.90
13426;DHT22;6785;57.918;12.530;2022-12-07T02:54:21;-1.80;99.90
13426;DHT22;6785;57.918;12.530;2022-12-07T02:56:51;-1.80;99.90
13426;DHT22;6785;57.918;12.530;2022-12-07T02:59:33;-1.70;99.90
13426;DHT22;6785;57.918;12.530;2022-12-07T03:02:10;-1.80;99.90
13426;DHT22;6785;57.918;12.530;2022-12-07T03:04:46;-1.70;99.90
13426;DHT22;6785;57.918;12.530;2022-12-07T03:07:21;-1.70;99.90
13426;DHT22;6785;57.918;12.530;2022-12-07T03:09:56;-1.70;99.90
13426;DHT22;6785;57.918;12.530;2022-12-07T03:12:29;-1.70;99.90
13426;DHT22;6785;57.918;12.530;2022-12-07T03:15:03;-1.60;99.90
13426;DHT22;6785;57.918;12.530;2022-12-07T03:17:34;-1.60;99.90
13426;DHT22;6785;57.918;12.530;2022-12-07T03:20:05;-1.60;99.90
13426;DHT22;6785;57.918;12.530;2022-12-07T03:22:34;-1.60;99.90
13426;DHT22;6785;57.918;12.530;2022-12-07T03:25:05;-1.50;99.90
13426;DHT22;6785;57.918;12.530;2022-12-07T03:27:37;-1.50;99.90
13426;DHT22;6785;57.918;12.530;2022-12-07T03:30:09;-1.50;99.90
13426;DHT22;6785;57.918;12.530;2022-12-07T03:32:41;-1.40;99.90
13426;DHT22;6785;57.918;12.530;2022-12-07T03:35:12;-1.40;99.90
13426;DHT22;6785;57.918;12.530;2022-12-07T03:37:45;-1.30;99.90
13426;DHT22;6785;57.918;12.530;2022-12-07T03:40:16;-1.20;99.90
13426;DHT22;6785;57.918;12.530;2022-12-07T03:42:45;-1.20;99.90
13426;DHT22;6785;57.918;12.530;2022-12-07T03:45:15;-1.20;99.90
13426;DHT22;6785;57.918;12.530;2022-12-07T03:47:46;-1.20;99.90
13426;DHT22;6785;57.918;12.530;2022-12-07T03:50:19;-1.20;99.90
13426;DHT22;6785;57.918;12.530;2022-12-07T03:52:53;-1.20;99.90
13426;DHT22;6785;57.918;12.530;2022-12-07T03:55:26;-1.20;99.90
13426;DHT22;6785;57.918;12.530;2022-12-07T03:57:56;-1.30;99.90
13426;DHT22;6785;57.918;12.530;2022-12-07T04:00:26;-1.20;99.90
13426;DHT22;6785;57.918;12.530;2022-12-07T04:02:53;-1.20;99.90
13426;DHT22;6785;57.918;12.530;2022-12-07T04:05:21;-1.20;99.90
13426;DHT22;6785;57.918;12.530;2022-12-07T04:07:48;-1.20;99.90
13426;DHT22;6785;57.918;12.530;2022-12-07T04:10:15;-1.10;99.90
13426;DHT22;6785;57.918;12.530;2022-12-07T04:12:42;-1.10;99.90
13426;DHT22;6785;57.918;12.530;2022-12-07T04:15:09;-1.10;99.90
13426;DHT22;6785;57.918;12.530;2022-12-07T04:17:37;-1.20;99.90
13426;DHT22;6785;57.918;12.530;2022-12-07T04:20:05;-1.20;99.90
13426;DHT22;6785;57.918;12.530;2022-12-07T04:22:33;-1.30;99.90
13426;DHT22;6785;57.918;12.530;2022-12-07T04:24:59;-1.30;99.90
13426;DHT22;6785;57.918;12.530;2022-12-07T04:27:26;-1.20;99.90
13426;DHT22;6785;57.918;12.530;2022-12-07T04:29:53;-1.30;99.90
13426;DHT22;6785;57.918;12.530;2022-12-07T04:32:21;-1.20;99.90
13426;DHT22;6785;57.918;12.530;2022-12-07T04:34:49;-1.20;99.90
13426;DHT22;6785;57.918;12.530;2022-12-07T04:37:16;-1.20;99.90
13426;DHT22;6785;57.918;12.530;2022-12-07T04:39:42;-1.10;99.90
13426;DHT22;6785;57.918;12.530;2022-12-07T04:42:10;-1.10;99.90
13426;DHT22;6785;57.918;12.530;2022-12-07T04:44:38;-1.10;99.90
13426;DHT22;6785;57.918;12.530;2022-12-07T04:47:05;-1.10;99.90
13426;DHT22;6785;57.918;12.530;2022-12-07T04:49:32;-1.10;99.90
13426;DHT22;6785;57.918;12.530;2022-12-07T04:52:00;-1.10;99.90
13426;DHT22;6785;57.918;12.530;2022-12-07T04:54:26;-1.10;99.90
13426;DHT22;6785;57.918;12.530;2022-12-07T04:56:53;-1.10;99.90
13426;DHT22;6785;57.918;12.530;2022-12-07T04:59:20;-1.00;99.90
13426;DHT22;6785;57.918;12.530;2022-12-07T05:01:47;-1.00;99.90
13426;DHT22;6785;57.918;12.530;2022-12-07T05:04:13;-1.00;99.90
13426;DHT22;6785;57.918;12.530;2022-12-07T05:06:41;-1.00;99.90
13426;DHT22;6785;57.918;12.530;2022-12-07T05:09:09;-1.00;99.90
13426;DHT22;6785;57.918;12.530;2022-12-07T05:11:36;-1.10;99.90
13426;DHT22;6785;57.918;12.530;2022-12-07T05:14:09;-1.00;99.90
13426;DHT22;6785;57.918;12.530;2022-12-07T05:16:37;-1.00;99.90
13426;DHT22;6785;57.918;12.530;2022-12-07T05:19:04;-1.10;99.90
13426;DHT22;6785;57.918;12.530;2022-12-07T05:21:31;-1.00;99.90
13426;DHT22;6785;57.918;12.530;2022-12-07T05:23:57;-1.10;99.90
13426;DHT22;6785;57.918;12.530;2022-12-07T05:26:26;-1.00;99.90
13426;DHT22;6785;57.918;12.530;2022-12-07T05:28:54;-1.00;99.90
13426;DHT22;6785;57.918;12.530;2022-12-07T05:31:21;-1.10;99.90
13426;DHT22;6785;57.918;12.530;2022-12-07T05:33:48;-1.10;99.90
13426;DHT22;6785;57.918;12.530;2022-12-07T05:36:15;-1.10;99.90
13426;DHT22;6785;57.918;12.530;2022-12-07T05:38:42;-1.10;99.90
13426;DHT22;6785;57.918;12.530;2022-12-07T05:41:12;-1.10;99.90
13426;DHT22;6785;57.918;12.530;2022-12-07T05:44:01;-1.10;99.90
13426;DHT22;6785;57.918;12.530;2022-12-07T05:46:28;-1.10;99.90
13426;DHT22;6785;57.918;12.530;2022-12-07T05:48:54;-1.10;99.90
13426;DHT22;6785;57.918;12.530;2022-12-07T05:51:21;-1.10;99.90
13426;DHT22;6785;57.918;12.530;2022-12-07T05:53:48;-1.10;99.90
13426;DHT22;6785;57.918;12.530;2022-12-07T05:56:15;-1.00;99.90
13426;DHT22;6785;57.918;12.530;2022-12-07T05:58:42;-1.00;99.90
13426;DHT22;6785;57.918;12.530;2022-12-07T06:01:27;-1.00;99.90
13426;DHT22;6785;57.918;12.530;2022-12-07T06:03:54;-1.00;99.90
13426;DHT22;6785;57.918;12.530;2022-12-07T06:06:21;-0.90;99.90
13426;DHT22;6785;57.918;12.530;2022-12-07T06:08:48;-0.90;99.90
13426;DHT22;6785;57.918;12.530;2022-12-07T06:11:14;-0.90;99.90
13426;DHT22;6785;57.918;12.530;2022-12-07T06:13:59;-0.90;99.90
13426;DHT22;6785;57.918;12.530;2022-12-07T06:16:27;-0.90;99.90
13426;DHT22;6785;57.918;12.530;2022-12-07T06:18:54;-0.90;99.90
13426;DHT22;6785;57.918;12.530;2022-12-07T06:21:20;-0.90;99.90
13426;DHT22;6785;57.918;12.530;2022-12-07T06:23:47;-0.80;99.90
13426;DHT22;6785;57.918;12.530;2022-12-07T06:26:14;-0.90;99.90
13426;DHT22;6785;57.918;12.530;2022-12-07T06:28:41;-0.80;99.90
13426;DHT22;6785;57.918;12.530;2022-12-07T06:31:08;-0.80;99.90
13426;DHT22;6785;57.918;12.530;2022-12-07T06:33:36;-0.80;99.90
13426;DHT22;6785;57.918;12.530;2022-12-07T06:36:04;-0.80;99.90
13426;DHT22;6785;57.918;12.530;2022-12-07T06:38:30;-0.70;99.90
13426;DHT22;6785;57.918;12.530;2022-12-07T06:40:57;-0.70;99.90
13426;DHT22;6785;57.918;12.530;2022-12-07T06:43:24;-0.80;99.90
13426;DHT22;6785;57.918;12.530;2022-12-07T06:45:51;-0.80;99.90
13426;DHT22;6785;57.918;12.530;2022-12-07T06:48:18;-0.80;99.90
13426;DHT22;6785;57.918;12.530;2022-12-07T06:50:46;-0.80;99.90
13426;DHT22;6785;57.918;12.530;2022-12-07T06:53:13;-0.70;99.90
13426;DHT22;6785;57.918;12.530;2022-12-07T06:55:39;-0.70;99.90
13426;DHT22;6785;57.918;12.530;2022-12-07T06:58:06;-0.80;99.90
13426;DHT22;6785;57.918;12.530;2022-12-07T07:00:33;-0.80;99.90
13426;DHT22;6785;57.918;12.530;2022-12-07T07:03:00;-0.70;99.90
13426;DHT22;6785;57.918;12.530;2022-12-07T07:05:27;-0.70;99.90
13426;DHT22;6785;57.918;12.530;2022-12-07T07:07:55;-0.70;99.90
13426;DHT22;6785;57.918;12.530;2022-12-07T07:10:22;-0.70;99.90
13426;DHT22;6785;57.918;12.530;2022-12-07T07:12:48;-0.70;99.90
13426;DHT22;6785;57.918;12.530;2022-12-07T07:15:15;-0.70;99.90
13426;DHT22;6785;57.918;12.530;2022-12-07T07:17:42;-0.70;99.90
13426;DHT22;6785;57.918;12.530;2022-12-07T07:20:10;-0.70;99.90
13426;DHT22;6785;57.918;12.530;2022-12-07T07:22:37;-0.70;99.90
13426;DHT22;6785;57.918;12.530;2022-12-07T07:25:06;-0.70;99.90
13426;DHT22;6785;57.918;12.530;2022-12-07T07:27:33;-0.70;99.90
13426;DHT22;6785;57.918;12.530;2022-12-07T07:30:00;-0.70;99.90
13426;DHT22;6785;57.918;12.530;2022-12-07T07:32:26;-0.70;99.90
13426;DHT22;6785;57.918;12.530;2022-12-07T07:34:53;-0.70;99.90
13426;DHT22;6785;57.918;12.530;2022-12-07T07:37:20;-0.70;99.90
13426;DHT22;6785;57.918;12.530;2022-12-07T07:39:46;-0.70;99.90
13426;DHT22;6785;57.918;12.530;2022-12-07T07:42:15;-0.70;99.90
13426;DHT22;6785;57.918;12.530;2022-12-07T07:44:41;-0.70;99.90
13426;DHT22;6785;57.918;12.530;2022-12-07T07:47:08;-0.70;99.90
13426;DHT22;6785;57.918;12.530;2022-12-07T07:49:35;-0.70;99.90
13426;DHT22;6785;57.918;12.530;2022-12-07T07:52:02;-0.70;99.90
13426;DHT22;6785;57.918;12.530;2022-12-07T07:54:29;-0.60;99.90
13426;DHT22;6785;57.918;12.530;2022-12-07T07:56:55;-0.70;99.90
13426;DHT22;6785;57.918;12.530;2022-12-07T07:59:24;-0.60;99.90
13426;DHT22;6785;57.918;12.530;2022-12-07T08:01:51;-0.70;99.90
13426;DHT22;6785;57.918;12.530;2022-12-07T08:04:17;-0.70;99.90
13426;DHT22;6785;57.918;12.530;2022-12-07T08:06:44;-0.70;99.90
13426;DHT22;6785;57.918;12.530;2022-12-07T08:09:12;-0.80;99.90
13426;DHT22;6785;57.918;12.530;2022-12-07T08:11:38;-0.70;99.90
13426;DHT22;6785;57.918;12.530;2022-12-07T08:14:05;-0.60;99.90
13426;DHT22;6785;57.918;12.530;2022-12-07T08:16:33;-0.60;99.90
13426;DHT22;6785;57.918;12.530;2022-12-07T08:19:00;-0.60;99.90
13426;DHT22;6785;57.918;12.530;2022-12-07T08:21:27;-0.60;99.90
13426;DHT22;6785;57.918;12.530;2022-12-07T08:23:53;-0.60;99.90
13426;DHT22;6785;57.918;12.530;2022-12-07T08:26:20;-0.60;99.90
13426;DHT22;6785;57.918;12.530;2022-12-07T08:28:47;-0.60;99.90
13426;DHT22;6785;57.918;12.530;2022-12-07T08:31:16;-0.60;99.90
13426;DHT22;6785;57.918;12.530;2022-12-07T08:33:45;-0.60;99.90
13426;DHT22;6785;57.918;12.530;2022-12-07T08:36:12;-0.60;99.90
13426;DHT22;6785;57.918;12.530;2022-12-07T08:38:40;-0.60;99.90
13426;DHT22;6785;57.918;12.530;2022-12-07T08:41:08;-0.70;99.90
13426;DHT22;6785;57.918;12.530;2022-12-07T08:43:35;-0.70;99.90
13426;DHT22;6785;57.918;12.530;2022-12-07T08:46:09;-0.70;99.90
13426;DHT22;6785;57.918;12.530;2022-12-07T08:48:40;-0.70;99.90
13426;DHT22;6785;57.918;12.530;2022-12-07T08:51:09;-0.60;99.90
13426;DHT22;6785;57.918;12.530;2022-12-07T08:53:37;-0.60;99.90
13426;DHT22;6785;57.918;12.530;2022-12-07T08:56:06;-0.60;99.90
13426;DHT22;6785;57.918;12.530;2022-12-07T08:58:33;-0.60;99.90
13426;DHT22;6785;57.918;12.530;2022-12-07T09:01:00;-0.60;99.90
13426;DHT22;6785;57.918;12.530;2022-12-07T09:03:27;-0.60;99.90
13426;DHT22;6785;57.918;12.530;2022-12-07T09:05:55;-0.60;99.90
13426;DHT22;6785;57.918;12.530;2022-12-07T09:08:26;-0.60;99.90
13426;DHT22;6785;57.918;12.530;2022-12-07T09:10:54;-0.60;99.90
13426;DHT22;6785;57.918;12.530;2022-12-07T09:13:21;-0.60;99.90
13426;DHT22;6785;57.918;12.530;2022-12-07T09:15:48;-0.50;99.90
13426;DHT22;6785;57.918;12.530;2022-12-07T09:18:15;-0.50;99.90
13426;DHT22;6785;57.918;12.530;2022-12-07T09:20:42;-0.50;99.90
13426;DHT22;6785;57.918;12.530;2022-12-07T09:23:08;-0.60;99.90
13426;DHT22;6785;57.918;12.530;2022-12-07T09:25:37;-0.60;99.90
13426;DHT22;6785;57.918;12.530;2022-12-07T09:28:04;-0.70;99.90
13426;DHT22;6785;57.918;12.530;2022-12-07T09:30:30;-0.70;99.90
13426;DHT22;6785;57.918;12.530;2022-12-07T09:32:57;-0.60;99.90
13426;DHT22;6785;57.918;12.530;2022-12-07T09:35:25;-0.60;99.90
13426;DHT22;6785;57.918;12.530;2022-12-07T09:37:52;-0.60;99.90
13426;DHT22;6785;57.918;12.530;2022-12-07T09:40:20;-0.60;99.90
13426;DHT22;6785;57.918;12.530;2022-12-07T09:42:51;-0.50;99.90
13426;DHT22;6785;57.918;12.530;2022-12-07T09:45:21;-0.50;99.90
13426;DHT22;6785;57.918;12.530;2022-12-07T09:47:48;-0.50;99.90
13426;DHT22;6785;57.918;12.530;2022-12-07T09:50:19;-0.60;99.90
13426;DHT22;6785;57.918;12.530;2022-12-07T09:52:47;-0.60;99.90
13426;DHT22;6785;57.918;12.530;2022-12-07T09:55:17;-0.50;99.90
13426;DHT22;6785;57.918;12.530;2022-12-07T09:57:46;-0.50;99.90
13426;DHT22;6785;57.918;12.530;2022-12-07T10:00:16;-0.50;99.90
13426;DHT22;6785;57.918;12.530;2022-12-07T10:02:46;-0.40;99.90
13426;DHT22;6785;57.918;12.530;2022-12-07T10:05:16;-0.40;99.90
13426;DHT22;6785;57.918;12.530;2022-12-07T10:07:44;-0.30;99.90
13426;DHT22;6785;57.918;12.530;2022-12-07T10:10:14;-0.40;99.90
13426;DHT22;6785;57.918;12.530;2022-12-07T10:12:54;-0.30;99.90
13426;DHT22;6785;57.918;12.530;2022-12-07T10:15:22;-0.40;99.90
13426;DHT22;6785;57.918;12.530;2022-12-07T10:17:50;-0.30;99.90
13426;DHT22;6785;57.918;12.530;2022-12-07T10:20:22;-0.30;99.90
13426;DHT22;6785;57.918;12.530;2022-12-07T10:23:01;-0.20;99.90
13426;DHT22;6785;57.918;12.530;2022-12-07T10:25:31;-0.20;99.90
13426;DHT22;6785;57.918;12.530;2022-12-07T10:28:01;-0.10;99.90
13426;DHT22;6785;57.918;12.530;2022-12-07T10:30:30;-0.10;99.90
13426;DHT22;6785;57.918;12.530;2022-12-07T10:32:57;-0.10;99.90
13426;DHT22;6785;57.918;12.530;2022-12-07T10:35:26;0.00;99.90
13426;DHT22;6785;57.918;12.530;2022-12-07T10:37:54;0.10;99.90
13426;DHT22;6785;57.918;12.530;2022-12-07T10:40:31;0.10;99.90
13426;DHT22;6785;57.918;12.530;2022-12-07T10:43:04;0.20;99.90
13426;DHT22;6785;57.918;12.530;2022-12-07T10:45:34;0.20;99.90
13426;DHT22;6785;57.918;12.530;2022-12-07T10:48:07;0.20;99.90
13426;DHT22;6785;57.918;12.530;2022-12-07T10:50:55;0.20;99.90
13426;DHT22;6785;57.918;12.530;2022-12-07T10:53:32;0.10;99.90
13426;DHT22;6785;57.918;12.530;2022-12-07T10:56:16;0.10;99.90
13426;DHT22;6785;57.918;12.530;2022-12-07T10:58:56;0.10;99.90
13426;DHT22;6785;57.918;12.530;2022-12-07T11:01:31;0.00;99.90
13426;DHT22;6785;57.918;12.530;2022-12-07T11:04:16;0.00;99.90
13426;DHT22;6785;57.918;12.530;2022-12-07T11:06:49;0.00;99.90
13426;DHT22;6785;57.918;12.530;2022-12-07T11:09:54;0.00;99.90
13426;DHT22;6785;57.918;12.530;2022-12-07T11:12:32;0.00;99.90
13426;DHT22;6785;57.918;12.530;2022-12-07T11:15:04;-0.20;99.90
13426;DHT22;6785;57.918;12.530;2022-12-07T11:17:45;-0.20;99.90
13426;DHT22;6785;57.918;12.530;2022-12-07T11:20:29;-0.20;99.90
13426;DHT22;6785;57.918;12.530;2022-12-07T11:23:06;-0.30;99.90
13426;DHT22;6785;57.918;12.530;2022-12-07T11:25:46;-0.30;99.90
13426;DHT22;6785;57.918;12.530;2022-12-07T11:28:26;-0.30;99.90
13426;DHT22;6785;57.918;12.530;2022-12-07T11:31:02;-0.20;99.90
13426;DHT22;6785;57.918;12.530;2022-12-07T11:33:40;-0.20;99.90
13426;DHT22;6785;57.918;12.530;2022-12-07T11:36:17;-0.10;99.90
13426;DHT22;6785;57.918;12.530;2022-12-07T11:38:52;-0.20;99.90
13426;DHT22;6785;57.918;12.530;2022-12-07T11:41:24;-0.30;99.90
13426;DHT22;6785;57.918;12.530;2022-12-07T11:43:57;-0.40;99.90
13426;DHT22;6785;57.918;12.530;2022-12-07T11:46:27;-0.30;99.90
13426;DHT22;6785;57.918;12.530;2022-12-07T11:49:01;-0.40;99.90
13426;DHT22;6785;57.918;12.530;2022-12-07T11:51:33;-0.40;99.90
13426;DHT22;6785;57.918;12.530;2022-12-07T11:54:05;-0.40;99.90
13426;DHT22;6785;57.918;12.530;2022-12-07T11:56:37;-0.40;99.90
13426;DHT22;6785;57.918;12.530;2022-12-07T11:59:11;-0.50;99.90
13426;DHT22;6785;57.918;12.530;2022-12-07T12:01:47;-0.50;99.90
13426;DHT22;6785;57.918;12.530;2022-12-07T12:04:27;-0.50;99.90
13426;DHT22;6785;57.918;12.530;2022-12-07T12:06:57;-0.60;99.90
13426;DHT22;6785;57.918;12.530;2022-12-07T12:09:28;-0.60;99.90
13426;DHT22;6785;57.918;12.530;2022-12-07T12:12:20;-0.60;99.90
13426;DHT22;6785;57.918;12.530;2022-12-07T12:14:59;-0.60;99.90
13426;DHT22;6785;57.918;12.530;2022-12-07T12:20:29;-0.70;99.90
13426;DHT22;6785;57.918;12.530;2022-12-07T12:23:01;-0.80;99.90
13426;DHT22;6785;57.918;12.530;2022-12-07T12:25:37;-0.80;99.90
13426;DHT22;6785;57.918;12.530;2022-12-07T12:28:10;-0.70;99.90
13426;DHT22;6785;57.918;12.530;2022-12-07T12:30:43;-0.70;99.90
13426;DHT22;6785;57.918;12.530;2022-12-07T12:33:15;-0.70;99.90
13426;DHT22;6785;57.918;12.530;2022-12-07T12:35:45;-0.70;99.90
13426;DHT22;6785;57.918;12.530;2022-12-07T12:38:32;-0.70;99.90
13426;DHT22;6785;57.918;12.530;2022-12-07T12:41:01;-0.60;99.90
13426;DHT22;6785;57.918;12.530;2022-12-07T12:43:42;-0.60;99.90
13426;DHT22;6785;57.918;12.530;2022-12-07T12:46:38;-0.70;99.90
13426;DHT22;6785;57.918;12.530;2022-12-07T12:49:37;-0.70;99.90
13426;DHT22;6785;57.918;12.530;2022-12-07T12:55:19;-0.60;99.90
13426;DHT22;6785;57.918;12.530;2022-12-07T12:57:48;-0.60;99.90
13426;DHT22;6785;57.918;12.530;2022-12-07T13:00:36;-0.50;99.90
13426;DHT22;6785;57.918;12.530;2022-12-07T13:03:04;-0.50;99.90
13426;DHT22;6785;57.918;12.530;2022-12-07T13:05:31;-0.50;99.90
13426;DHT22;6785;57.918;12.530;2022-12-07T13:08:02;-0.50;99.90
13426;DHT22;6785;57.918;12.530;2022-12-07T13:10:44;-0.50;99.90
13426;DHT22;6785;57.918;12.530;2022-12-07T13:13:30;-0.60;99.90
13426;DHT22;6785;57.918;12.530;2022-12-07T13:18:58;-0.70;99.90
13426;DHT22;6785;57.918;12.530;2022-12-07T13:21:41;-0.70;99.90
13426;DHT22;6785;57.918;12.530;2022-12-07T13:24:10;-0.80;99.90
13426;DHT22;6785;57.918;12.530;2022-12-07T13:26:41;-0.80;99.90
13426;DHT22;6785;57.918;12.530;2022-12-07T13:29:12;-0.90;99.90
13426;DHT22;6785;57.918;12.530;2022-12-07T13:31:40;-1.00;99.90
13426;DHT22;6785;57.918;12.530;2022-12-07T13:34:30;-1.00;99.90
13426;DHT22;6785;57.918;12.530;2022-12-07T13:36:58;-1.00;99.90
13426;DHT22;6785;57.918;12.530;2022-12-07T13:39:28;-1.00;99.90
13426;DHT22;6785;57.918;12.530;2022-12-07T13:41:56;-1.10;99.90
13426;DHT22;6785;57.918;12.530;2022-12-07T13:44:24;-1.10;99.90
13426;DHT22;6785;57.918;12.530;2022-12-07T13:47:03;-1.10;99.90
13426;DHT22;6785;57.918;12.530;2022-12-07T13:49:38;-1.20;99.90
13426;DHT22;6785;57.918;12.530;2022-12-07T13:52:15;-1.20;99.90
13426;DHT22;6785;57.918;12.530;2022-12-07T13:54:47;-1.20;99.90
13426;DHT22;6785;57.918;12.530;2022-12-07T13:57:14;-1.20;99.90
13426;DHT22;6785;57.918;12.530;2022-12-07T13:59:41;-1.30;99.90
13426;DHT22;6785;57.918;12.530;2022-12-07T14:02:18;-1.30;99.90
13426;DHT22;6785;57.918;12.530;2022-12-07T14:04:49;-1.40;99.90
13426;DHT22;6785;57.918;12.530;2022-12-07T14:07:23;-1.40;99.90
13426;DHT22;6785;57.918;12.530;2022-12-07T14:09:54;-1.40;99.90
13426;DHT22;6785;57.918;12.530;2022-12-07T14:12:22;-1.40;99.90
13426;DHT22;6785;57.918;12.530;2022-12-07T14:14:49;-1.40;99.90
13426;DHT22;6785;57.918;12.530;2022-12-07T14:17:18;-1.50;99.90
13426;DHT22;6785;57.918;12.530;2022-12-07T14:19:49;-1.50;99.90
13426;DHT22;6785;57.918;12.530;2022-12-07T14:22:29;-1.60;99.90
13426;DHT22;6785;57.918;12.530;2022-12-07T14:25:01;-1.60;99.90
13426;DHT22;6785;57.918;12.530;2022-12-07T14:27:32;-1.70;99.90
13426;DHT22;6785;57.918;12.530;2022-12-07T14:30:01;-1.70;99.90
13426;DHT22;6785;57.918;12.530;2022-12-07T14:32:29;-1.80;99.90
13426;DHT22;6785;57.918;12.530;2022-12-07T14:35:00;-1.80;99.90
13426;DHT22;6785;57.918;12.530;2022-12-07T14:37:29;-1.90;99.90
13426;DHT22;6785;57.918;12.530;2022-12-07T14:39:56;-2.00;99.90
13426;DHT22;6785;57.918;12.530;2022-12-07T14:42:26;-2.10;99.90
13426;DHT22;6785;57.918;12.530;2022-12-07T14:44:53;-2.20;99.90
13426;DHT22;6785;57.918;12.530;2022-12-07T14:47:20;-2.30;99.90
13426;DHT22;6785;57.918;12.530;2022-12-07T14:49:46;-2.40;99.90
13426;DHT22;6785;57.918;12.530;2022-12-07T14:52:17;-2.40;99.90
13426;DHT22;6785;57.918;12.530;2022-12-07T14:54:45;-2.50;99.90
13426;DHT22;6785;57.918;12.530;2022-12-07T14:57:12;-2.50;99.90
13426;DHT22;6785;57.918;12.530;2022-12-07T14:59:39;-2.50;99.90
13426;DHT22;6785;57.918;12.530;2022-12-07T15:02:11;-2.70;99.90
13426;DHT22;6785;57.918;12.530;2022-12-07T15:04:38;-2.80;99.90
13426;DHT22;6785;57.918;12.530;2022-12-07T15:07:09;-2.80;99.90
13426;DHT22;6785;57.918;12.530;2022-12-07T15:09:38;-2.90;99.90
13426;DHT22;6785;57.918;12.530;2022-12-07T15:12:05;-2.90;99.90
13426;DHT22;6785;57.918;12.530;2022-12-07T15:14:32;-2.90;99.90
13426;DHT22;6785;57.918;12.530;2022-12-07T15:16:58;-3.00;99.90
13426;DHT22;6785;57.918;12.530;2022-12-07T15:19:25;-3.10;99.90
13426;DHT22;6785;57.918;12.530;2022-12-07T15:21:53;-3.10;99.90
13426;DHT22;6785;57.918;12.530;2022-12-07T15:24:20;-3.10;99.90
13426;DHT22;6785;57.918;12.530;2022-12-07T15:26:48;-3.20;99.90
13426;DHT22;6785;57.918;12.530;2022-12-07T15:29:15;-3.20;99.90
13426;DHT22;6785;57.918;12.530;2022-12-07T15:31:42;-3.30;99.90
13426;DHT22;6785;57.918;12.530;2022-12-07T15:34:09;-3.40;99.90
13426;DHT22;6785;57.918;12.530;2022-12-07T15:36:36;-3.50;99.90
13426;DHT22;6785;57.918;12.530;2022-12-07T15:39:02;-3.50;99.90
13426;DHT22;6785;57.918;12.530;2022-12-07T15:41:29;-3.60;99.90
13426;DHT22;6785;57.918;12.530;2022-12-07T15:43:57;-3.50;99.90
13426;DHT22;6785;57.918;12.530;2022-12-07T15:46:42;-3.60;99.90
13426;DHT22;6785;57.918;12.530;2022-12-07T15:49:11;-3.70;99.90
13426;DHT22;6785;57.918;12.530;2022-12-07T15:51:39;-3.70;99.90
13426;DHT22;6785;57.918;12.530;2022-12-07T15:54:05;-3.80;99.90
13426;DHT22;6785;57.918;12.530;2022-12-07T15:56:32;-3.90;99.90
13426;DHT22;6785;57.918;12.530;2022-12-07T15:59:00;-4.00;99.90
13426;DHT22;6785;57.918;12.530;2022-12-07T16:01:27;-4.10;99.90